Radar AviationWeather DUATS TFRs Wunderground Accuweather Weather.com

alt : Radar

TAFs

KCLE 300857Z 3009/3112 09004KT P6SM BKN050
   FM301500 18004KT P6SM SCT045 BKN080
   FM301800 01007KT P6SM VCTS BKN045CB
   FM302200 VRB03KT P6SM -TSRA BKN035CB
   FM310100 VRB03KT P6SM SCT250
   FM310900 17004KT 4SM BR SCT250
KFWA 300759Z 3008/3106 07005KT 5SM BR SCT006 BKN025
     TEMPO 3008/3012 2SM BR BKN006
   FM301400 10004KT P6SM BKN020
   FM301600 24003KT P6SM VCSH BKN035
   FM302100 26005KT P6SM VCTS BKN040CB
   FM310300 24003KT P6SM BKN250
KJXN 300722Z 3007/3106 06005KT P6SM VCSH BKN025
   FM301600 07007KT P6SM VCTS BKN035CB
KDTW 300720Z 3007/3112 04007KT P6SM SCT025 BKN060 BKN120
     TEMPO 3010/3012 5SM BR BKN025
   FM301400 05008KT P6SM VCSH SCT040 BKN060 BKN100
   FM302000 08009KT P6SM BKN060 BKN120
     PROB30 3021/3101 4SM TSRA OVC035CB
   FM310200 04006KT P6SM SCT050 BKN100
KFDY 300527Z 3006/3106 08007KT P6SM FEW250
   FM300800 04003KT 5SM BR SCT005
     TEMPO 3009/3013 2SM BR BKN005
   FM301400 06005KT P6SM VCTS SCT035CB BKN120
   FM310000 VRB03KT P6SM -TSRA BKN035CB
   FM310200 VRB03KT P6SM SCT250
KTOL 300527Z 3006/3106 03007KT P6SM VCSH SCT025 BKN120
     TEMPO 3006/3008 BKN025
   FM300800 04003KT 3SM BR SCT015 BKN200
   FM301400 06005KT P6SM VCTS SCT025CB OVC035
   FM310000 VRB03KT P6SM -TSRA OVC035CB
   FM310200 VRB02KT P6SM SCT250

METARs

KJXN 300856Z AUTO 36004KT 10SM SCT120 17/16 A2996 RMK AO2 SLP139 T01670156 58006
KDUH 300854Z AUTO 00000KT 10SM SCT110 20/17 A2993 RMK AO2 T01960165
KFWA 300854Z 10004KT 2 1/2SM BR BKN007 BKN016 21/19 A2992 RMK AO2 SLP126 T02060194 58006 $
KDTW 300853Z 03006KT 9SM -RA OVC110 20/17 A2994 RMK AO2 SLP133 P0000 60000 T02000172 56013
KFDY 300853Z AUTO 04004KT 4SM BR BKN005 22/20 A2991 RMK AO2 SLP117 60000 T02220200 56009
KTDZ 300853Z AUTO 03005KT 10SM FEW015 OVC110 23/22 A2992 RMK AO2 SLP127 T02280217 56011
KTOL 300852Z 36005KT 10SM SCT014 BKN060 OVC120 19/17 A2992 RMK AO2 SLP128 T01890172 56007
KCLE 300851Z 08005KT 10SM BKN055 BKN250 23/18 A2994 RMK AO2 SLP130 60000 T02330183 58007

alt : Satellite

alt : TFRs